createdAt,value
2016-06-20T17:02:18.325Z,18.69
2016-06-20T17:02:27.693Z,18.72
2016-06-20T17:02:37.051Z,18.75
2016-06-20T17:02:47.687Z,18.7
2016-06-20T17:02:57.706Z,18.63
2016-06-20T17:03:07.711Z,18.63
2016-06-20T17:03:17.701Z,18.67
2016-06-20T17:03:27.712Z,18.65
2016-06-20T17:03:37.727Z,18.63
2016-06-20T17:03:47.729Z,18.62
2016-06-20T17:03:57.748Z,18.63
2016-06-20T17:04:07.731Z,18.62
2016-06-20T17:04:17.738Z,18.58
2016-06-20T17:04:27.757Z,18.57
2016-06-20T17:04:37.759Z,18.45
2016-06-20T17:04:47.772Z,18.5
2016-06-20T17:04:57.137Z,18.52
2016-06-20T17:05:07.133Z,18.58
2016-06-20T17:05:17.771Z,18.5
2016-06-20T17:05:27.139Z,18.58
2016-06-20T17:05:37.795Z,18.6
2016-06-20T17:05:47.797Z,18.55
2016-06-20T17:05:57.167Z,18.52
2016-06-20T17:06:07.815Z,18.57
2016-06-20T17:06:17.817Z,18.63
2016-06-20T17:06:27.174Z,18.57
2016-06-20T17:06:37.187Z,18.5
2016-06-20T17:06:47.214Z,18.48
2016-06-20T17:06:57.206Z,18.48
2016-06-20T17:07:07.842Z,18.47
2016-06-20T17:07:17.845Z,18.48
2016-06-20T17:07:27.215Z,18.51
2016-06-20T17:07:37.858Z,18.48
2016-06-20T17:07:47.849Z,18.54
2016-06-20T17:07:57.876Z,18.5
2016-06-20T17:08:07.874Z,18.52
2016-06-20T17:08:17.887Z,18.47
2016-06-20T17:08:27.887Z,18.51
2016-06-20T17:08:37.894Z,18.47
2016-06-20T17:08:47.259Z,18.51
2016-06-20T17:08:57.907Z,18.52
2016-06-20T17:09:07.907Z,18.45
2016-06-20T17:09:17.926Z,18.5
2016-06-20T17:09:27.918Z,18.48
2016-06-20T17:09:37.926Z,18.51
2016-06-20T17:09:47.937Z,18.47
2016-06-20T17:09:57.938Z,18.47
2016-06-20T17:10:07.299Z,18.47
2016-06-20T17:10:17.948Z,18.45
2016-06-20T17:10:27.321Z,18.45
2016-06-20T17:10:37.966Z,18.41
2016-06-20T17:10:47.973Z,18.41
2016-06-20T17:10:57.975Z,18.45
2016-06-20T17:11:07.424Z,18.42
2016-06-20T17:11:17.981Z,18.47
2016-06-20T17:11:27.997Z,18.37
2016-06-20T17:11:38.015Z,18.42
2016-06-20T17:11:48.009Z,18.45
2016-06-20T17:11:58.029Z,18.42
2016-06-20T17:12:07.368Z,18.44
2016-06-20T17:12:18.008Z,18.37
2016-06-20T17:12:28.021Z,18.39
2016-06-20T17:12:38.027Z,18.44
2016-06-20T17:12:47.401Z,18.45
2016-06-20T17:12:57.415Z,18.37
2016-06-20T17:13:08.043Z,18.47
2016-06-20T17:13:17.404Z,18.27
2016-06-20T17:13:28.050Z,18.27
2016-06-20T17:13:38.060Z,18.33
2016-06-20T17:13:47.439Z,18.32
2016-06-20T17:13:58.068Z,18.27
2016-06-20T17:14:08.078Z,18.27
2016-06-20T17:14:18.086Z,18.26
2016-06-20T17:14:28.083Z,18.3
2016-06-20T17:14:38.115Z,18.3
2016-06-20T17:14:48.110Z,18.3
2016-06-20T17:14:58.107Z,18.26
2016-06-20T17:15:08.108Z,18.32
2016-06-20T17:15:18.108Z,18.37
2016-06-20T17:15:28.124Z,18.33
2016-06-20T17:15:38.147Z,18.33
2016-06-20T17:15:48.136Z,18.25
2016-06-20T17:15:58.144Z,18.25
2016-06-20T17:16:08.150Z,18.29
2016-06-20T17:16:18.154Z,18.23
2016-06-20T17:16:27.524Z,18.32
2016-06-20T17:16:38.158Z,18.3
2016-06-20T17:16:48.168Z,18.2
2016-06-20T17:16:57.543Z,18.21
2016-06-20T17:17:07.540Z,18.17
2016-06-20T17:17:18.174Z,18.15
2016-06-20T17:17:28.191Z,18.2
2016-06-20T17:17:37.558Z,18.2
2016-06-20T17:17:47.565Z,18.21
2016-06-20T17:17:58.221Z,18.17
2016-06-20T17:18:07.605Z,18.21
2016-06-20T17:18:17.576Z,18.11
2016-06-20T17:18:28.224Z,18.15
2016-06-20T17:18:37.598Z,18.18
2016-06-20T17:18:48.243Z,18.21
2016-06-20T17:18:57.615Z,18.18
2016-06-20T17:19:08.237Z,18.17
2016-06-20T17:19:18.246Z,18.17
2016-06-20T17:19:28.258Z,18.21
2016-06-20T17:19:38.258Z,18.21
2016-06-20T17:19:48.266Z,18.21
2016-06-20T17:19:57.632Z,18.29
2016-06-20T17:20:07.636Z,18.17
2016-06-20T17:20:17.660Z,18.17
2016-06-20T17:20:28.297Z,18.18
2016-06-20T17:20:38.298Z,18.17
2016-06-20T17:20:48.317Z,18.2
2016-06-20T17:20:58.299Z,18.21
2016-06-20T17:21:08.313Z,18.17
2016-06-20T17:21:18.357Z,18.17
2016-06-20T17:21:28.325Z,18.21
2016-06-20T17:21:37.696Z,18.17
2016-06-20T17:21:47.704Z,18.07
2016-06-20T17:21:58.343Z,18.07
2016-06-20T17:22:08.349Z,18.11
2016-06-20T17:22:18.351Z,18.03
2016-06-20T17:22:28.355Z,18.05
2016-06-20T17:22:38.363Z,18.07
2016-06-20T17:22:48.375Z,18.08
2016-06-20T17:22:58.372Z,18.12
2016-06-20T17:23:08.381Z,18.14
2016-06-20T17:23:18.390Z,18.08
2016-06-20T17:23:28.391Z,18.14
2016-06-20T17:23:38.395Z,18.11
2016-06-20T17:23:48.402Z,18.14
2016-06-20T17:23:57.785Z,18.12
2016-06-20T17:24:08.415Z,18.1
2016-06-20T17:24:18.422Z,18.12
2016-06-20T17:24:28.423Z,17.96
2016-06-20T17:24:38.433Z,18.07
2016-06-20T17:24:48.429Z,17.99
2016-06-20T17:24:58.435Z,17.97
2016-06-20T17:25:08.449Z,18.02
2016-06-20T17:25:18.459Z,18.02
2016-06-20T17:25:28.459Z,18
2016-06-20T17:25:38.473Z,18.02
2016-06-20T17:25:47.831Z,18
2016-06-20T17:25:57.860Z,18
2016-06-20T17:26:08.485Z,17.97
2016-06-20T17:26:18.484Z,17.96
2016-06-20T17:26:28.498Z,18.02
2016-06-20T17:26:38.500Z,17.97
2016-06-20T17:26:48.505Z,18.02
2016-06-20T17:26:58.515Z,18.03
2016-06-20T17:27:08.515Z,18.03
2016-06-20T17:27:17.883Z,17.87
2016-06-20T17:27:28.511Z,17.96
2016-06-20T17:27:38.525Z,17.93
2016-06-20T17:27:47.893Z,17.97
2016-06-20T17:27:57.906Z,17.96
2016-06-20T17:28:08.541Z,17.93
2016-06-20T17:28:18.563Z,17.93
2016-06-20T17:28:28.566Z,17.93
2016-06-20T17:28:38.564Z,17.89
2016-06-20T17:28:48.579Z,17.87
2016-06-20T17:28:58.578Z,17.92
2016-06-20T17:29:07.943Z,17.96
2016-06-20T17:29:18.975Z,17.96
2016-06-20T17:29:28.593Z,17.84
2016-06-20T17:29:38.611Z,17.92
2016-06-20T17:29:48.622Z,17.87
2016-06-20T17:29:58.607Z,17.9
2016-06-20T17:30:08.634Z,17.86
2016-06-20T17:30:18.615Z,18.03
2016-06-20T17:30:28.626Z,17.89
2016-06-20T17:30:38.640Z,17.93
2016-06-20T17:30:48.009Z,17.93
2016-06-20T17:30:58.645Z,17.87
2016-06-20T17:31:08.637Z,17.9
2016-06-20T17:31:18.026Z,17.93
2016-06-20T17:31:28.763Z,17.84
2016-06-20T17:31:38.659Z,17.9
2016-06-20T17:31:48.678Z,17.92
2016-06-20T17:31:58.677Z,17.84
2016-06-20T17:32:08.055Z,17.92
2016-06-20T17:32:18.675Z,17.93
2016-06-20T17:32:28.699Z,17.96
2016-06-20T17:32:38.709Z,17.92
2016-06-20T17:32:48.063Z,17.9
2016-06-20T17:32:58.711Z,17.93
2016-06-20T17:33:08.714Z,17.92
2016-06-20T17:33:18.721Z,17.86
2016-06-20T17:33:29.108Z,17.86
2016-06-20T17:33:38.090Z,17.92
2016-06-20T17:33:48.729Z,17.87
2016-06-20T17:33:58.750Z,17.97
2016-06-20T17:34:08.763Z,17.86
2016-06-20T17:34:18.760Z,17.99
2016-06-20T17:34:28.753Z,17.99
2016-06-20T17:34:38.758Z,17.95
2016-06-20T17:34:48.764Z,17.92
2016-06-20T17:34:58.137Z,17.9
2016-06-20T17:35:08.806Z,17.95
2016-06-20T17:35:18.788Z,17.9
2016-06-20T17:35:28.797Z,17.97
2016-06-20T17:35:38.846Z,17.96
2016-06-20T17:35:48.801Z,17.9
2016-06-20T17:35:58.176Z,17.89
2016-06-20T17:36:08.197Z,17.81
2016-06-20T17:36:18.813Z,17.82
2016-06-20T17:36:28.189Z,17.81
2016-06-20T17:36:38.824Z,17.82
2016-06-20T17:36:48.832Z,17.9
2016-06-20T17:36:58.838Z,17.87
2016-06-20T17:37:08.207Z,17.87
2016-06-20T17:37:18.858Z,17.84
2016-06-20T17:37:28.847Z,17.84
2016-06-20T17:37:38.870Z,17.87
2016-06-20T17:37:48.867Z,17.81
2016-06-20T17:37:58.874Z,17.89
2016-06-20T17:38:08.883Z,17.89
2016-06-20T17:38:18.892Z,17.82
2016-06-20T17:38:28.883Z,17.82
2016-06-20T17:38:38.895Z,17.84
2016-06-20T17:38:48.257Z,17.82
2016-06-20T17:38:58.914Z,17.82
2016-06-20T17:39:08.269Z,17.82
2016-06-20T17:39:18.923Z,17.86
2016-06-20T17:39:28.302Z,17.79
2016-06-20T17:39:38.922Z,17.82
2016-06-20T17:39:48.944Z,17.89
2016-06-20T17:39:58.309Z,17.92
2016-06-20T17:40:08.951Z,17.93
2016-06-20T17:40:18.953Z,17.99
2016-06-20T17:40:28.961Z,17.84
2016-06-20T17:40:38.965Z,17.97
2016-06-20T17:40:48.965Z,17.96
2016-06-20T17:40:58.974Z,17.97
2016-06-20T17:41:08.335Z,18
2016-06-20T17:41:18.982Z,17.96
2016-06-20T17:41:28.356Z,17.9
2016-06-20T17:41:38.994Z,17.9
2016-06-20T17:41:49.011Z,17.87
2016-06-20T17:41:58.379Z,17.92
2016-06-20T17:42:09.022Z,17.9
2016-06-20T17:42:19.010Z,17.95
2016-06-20T17:42:29.022Z,17.89
2016-06-20T17:42:39.039Z,17.96
2016-06-20T17:42:49.083Z,17.92
2016-06-20T17:42:59.038Z,17.92
2016-06-20T17:43:09.043Z,17.89
2016-06-20T17:43:19.052Z,17.97
2016-06-20T17:43:28.412Z,17.93
2016-06-20T17:43:38.424Z,17.87
2016-06-20T17:43:49.070Z,17.93
2016-06-20T17:43:59.078Z,17.87
2016-06-20T17:44:09.073Z,17.82
2016-06-20T17:44:18.446Z,17.84
2016-06-20T17:44:28.450Z,17.84
2016-06-20T17:44:38.470Z,17.77
2016-06-20T17:44:49.096Z,17.81
2016-06-20T17:44:59.106Z,17.77
2016-06-20T17:45:09.111Z,17.81
2016-06-20T17:45:19.125Z,17.72
2016-06-20T17:45:29.121Z,17.81
2016-06-20T17:45:39.142Z,17.78
2016-06-20T17:45:48.502Z,17.74
2016-06-20T17:45:59.146Z,17.7
2016-06-20T17:46:09.136Z,17.71
2016-06-20T17:46:19.150Z,17.72
2016-06-20T17:46:29.150Z,17.7
2016-06-20T17:46:39.152Z,17.71
2016-06-20T17:46:48.527Z,17.66
2016-06-20T17:46:58.537Z,17.68
2016-06-20T17:47:08.553Z,17.7
2016-06-20T17:47:18.539Z,17.63
2016-06-20T17:47:29.187Z,17.63
2016-06-20T17:47:38.565Z,17.63
2016-06-20T17:47:48.585Z,17.63
2016-06-20T17:47:58.583Z,17.66
2016-06-20T17:48:08.582Z,17.63
2016-06-20T17:48:19.213Z,17.63
2016-06-20T17:48:28.592Z,17.62
2016-06-20T17:48:39.245Z,17.59
2016-06-20T17:48:49.241Z,17.62
2016-06-20T17:48:59.250Z,17.63
2016-06-20T17:49:09.249Z,17.68
2016-06-20T17:49:19.251Z,17.64
2016-06-20T17:49:28.631Z,17.68
2016-06-20T17:49:38.624Z,17.7
2016-06-20T17:49:48.638Z,17.7
2016-06-20T17:49:59.283Z,17.62
2016-06-20T17:50:08.650Z,17.58
2016-06-20T17:50:19.272Z,17.63
2016-06-20T17:50:29.283Z,17.58
2016-06-20T17:50:39.294Z,17.59
2016-06-20T17:50:49.297Z,17.51
2016-06-20T17:50:58.661Z,17.51
2016-06-20T17:51:08.668Z,17.48
2016-06-20T17:51:19.312Z,17.48
2016-06-20T17:51:29.315Z,17.49
2016-06-20T17:51:39.323Z,17.44
2016-06-20T17:51:48.714Z,17.48
2016-06-20T17:51:59.338Z,17.52
2016-06-20T17:52:09.347Z,17.49
2016-06-20T17:52:19.339Z,17.52
2016-06-20T17:52:29.349Z,17.34
2016-06-20T17:52:39.356Z,17.38
2016-06-20T17:52:49.363Z,17.46
2016-06-20T17:52:59.398Z,17.36
2016-06-20T17:53:09.370Z,17.38
2016-06-20T17:53:18.737Z,17.41
2016-06-20T17:53:29.387Z,17.38
2016-06-20T17:53:38.752Z,17.34
2016-06-20T17:53:48.765Z,17.36
2016-06-20T17:53:58.767Z,17.37
2016-06-20T17:54:09.397Z,17.4
2016-06-20T17:54:18.795Z,17.38
2016-06-20T17:54:29.414Z,17.37
2016-06-20T17:54:39.434Z,17.44
2016-06-20T17:54:49.431Z,17.38
2016-06-20T17:54:58.801Z,17.46
2016-06-20T17:55:09.445Z,17.4
2016-06-20T17:55:19.441Z,17.48
2016-06-20T17:55:29.457Z,17.41
2016-06-20T17:55:39.455Z,17.43
2016-06-20T17:55:49.471Z,17.38
2016-06-20T17:55:59.466Z,17.38
2016-06-20T17:56:08.831Z,17.36
2016-06-20T17:56:19.483Z,17.33
2016-06-20T17:56:28.864Z,17.34
2016-06-20T17:56:38.870Z,17.37
2016-06-20T17:56:49.490Z,17.43
2016-06-20T17:56:58.863Z,17.37
2016-06-20T17:57:09.508Z,17.37
2016-06-20T17:57:19.534Z,17.37
2016-06-20T17:57:28.887Z,17.36
2016-06-20T17:57:38.891Z,17.34
2016-06-20T17:57:49.534Z,17.34
2016-06-20T17:57:59.530Z,17.34
2016-06-20T17:58:09.539Z,17.33
2016-06-20T17:58:19.547Z,17.31
2016-06-20T17:58:28.910Z,17.34
2016-06-20T17:58:38.921Z,17.36
2016-06-20T17:58:49.568Z,17.28
2016-06-20T17:58:58.942Z,17.26
2016-06-20T17:59:09.571Z,17.31
2016-06-20T17:59:18.953Z,17.23
2016-06-20T17:59:28.960Z,17.31
2016-06-20T17:59:39.587Z,17.26
2016-06-20T17:59:48.962Z,17.31
2016-06-20T17:59:59.602Z,17.21
2016-06-20T18:00:09.621Z,17.28
2016-06-20T18:00:19.612Z,17.18
2016-06-20T18:00:29.618Z,17.21
2016-06-20T18:00:39.615Z,17.21
2016-06-20T18:00:48.993Z,17.19
2016-06-20T18:00:59.643Z,17.31
2016-06-20T18:01:09.637Z,17.19
2016-06-20T18:01:19.655Z,17.28
2016-06-20T18:01:29.649Z,17.19
2016-06-20T18:01:39.014Z,17.21
2016-06-20T18:01:49.657Z,17.23
2016-06-20T18:01:59.665Z,17.19
2016-06-20T18:02:09.679Z,17.16
2016-06-20T18:02:19.679Z,17.21
2016-06-20T18:02:29.684Z,17.19
2016-06-20T18:02:39.047Z,17.16
2016-06-20T18:02:49.700Z,17.12
2016-06-20T18:02:59.693Z,17.19
2016-06-20T18:03:09.707Z,17.21
2016-06-20T18:03:19.706Z,17.22
2016-06-20T18:03:29.077Z,17.19
2016-06-20T18:03:39.082Z,17.15
2016-06-20T18:03:49.726Z,17.12
2016-06-20T18:03:59.093Z,17.18
2016-06-20T18:04:09.123Z,17.19
2016-06-20T18:04:19.766Z,17.11
2016-06-20T18:04:29.751Z,17.12
2016-06-20T18:04:39.758Z,17.14
2016-06-20T18:04:49.808Z,17.19
2016-06-20T18:04:59.127Z,17.16
2016-06-20T18:05:09.775Z,17.14
2016-06-20T18:05:19.777Z,17.19
2016-06-20T18:05:29.142Z,17.23
2016-06-20T18:05:39.804Z,17.19
2016-06-20T18:05:49.793Z,17.15
2016-06-20T18:05:59.791Z,17.15
2016-06-20T18:06:09.170Z,17.15
2016-06-20T18:06:19.815Z,17.06
2016-06-20T18:06:29.837Z,17.15
2016-06-20T18:06:39.830Z,17.04
2016-06-20T18:06:49.835Z,17.03
2016-06-20T18:06:59.193Z,17.12
2016-06-20T18:07:09.840Z,17.11
2016-06-20T18:07:19.849Z,17.07
2016-06-20T18:07:29.848Z,17.04
2016-06-20T18:07:39.210Z,17
2016-06-20T18:07:49.232Z,17
2016-06-20T18:07:59.866Z,17.01
2016-06-20T18:08:09.872Z,16.97
2016-06-20T18:08:19.874Z,17
2016-06-20T18:08:29.875Z,16.94
2016-06-20T18:08:39.888Z,16.98
2016-06-20T18:08:49.898Z,17.03
2016-06-20T18:08:59.908Z,16.96
2016-06-20T18:09:09.251Z,16.94
2016-06-20T18:09:19.912Z,16.98
2016-06-20T18:09:29.920Z,17
2016-06-20T18:09:39.916Z,16.91
2016-06-20T18:09:49.299Z,17
2016-06-20T18:09:59.932Z,16.98
2016-06-20T18:10:09.934Z,16.98
2016-06-20T18:10:19.938Z,16.97
2016-06-20T18:10:29.945Z,16.94
2016-06-20T18:10:39.323Z,17.03
2016-06-20T18:10:49.957Z,17
2016-06-20T18:10:59.967Z,17.01
2016-06-20T18:11:09.345Z,16.97
2016-06-20T18:11:19.967Z,16.98
2016-06-20T18:11:29.369Z,17.01
2016-06-20T18:11:39.363Z,16.98
2016-06-20T18:11:49.986Z,16.96
2016-06-20T18:11:59.356Z,16.96
2016-06-20T18:12:09.999Z,16.98
2016-06-20T18:12:20.010Z,16.97
2016-06-20T18:12:29.372Z,16.98
2016-06-20T18:12:40.024Z,16.97
2016-06-20T18:12:50.018Z,16.97
2016-06-20T18:13:00.023Z,16.97
2016-06-20T18:13:10.022Z,16.97
2016-06-20T18:13:20.045Z,17.01
2016-06-20T18:13:30.045Z,16.97
2016-06-20T18:13:40.045Z,16.96
2016-06-20T18:13:50.048Z,16.98
2016-06-20T18:14:00.061Z,17.01
2016-06-20T18:14:10.067Z,17.04
2016-06-20T18:14:20.059Z,17.01
2016-06-20T18:14:30.089Z,17.01
2016-06-20T18:14:40.078Z,17.04
2016-06-20T18:14:50.090Z,17
2016-06-20T18:15:00.081Z,17.01
2016-06-20T18:15:10.118Z,17.01
2016-06-20T18:15:20.097Z,16.96
2016-06-20T18:15:30.094Z,16.96
2016-06-20T18:15:40.104Z,16.97
2016-06-20T18:15:50.108Z,16.93
2016-06-20T18:16:00.119Z,16.97
2016-06-20T18:16:10.129Z,16.94
2016-06-20T18:16:20.130Z,16.96
2016-06-20T18:16:30.130Z,16.94
2016-06-20T18:16:40.142Z,16.97
2016-06-20T18:16:49.532Z,16.89
2016-06-20T18:17:00.154Z,16.89
2016-06-20T18:17:09.562Z,16.88
2016-06-20T18:17:20.157Z,16.88
2016-06-20T18:17:30.171Z,16.94
2016-06-20T18:17:40.173Z,16.97
2016-06-20T18:17:50.188Z,16.91
2016-06-20T18:17:59.549Z,16.94
2016-06-20T18:18:10.194Z,16.94
2016-06-20T18:18:20.216Z,16.93
2016-06-20T18:18:30.200Z,16.97
2016-06-20T18:18:39.573Z,16.83
2016-06-20T18:18:50.211Z,16.94
2016-06-20T18:19:00.235Z,16.94
2016-06-20T18:19:10.222Z,16.83
2016-06-20T18:19:20.237Z,16.78
2016-06-20T18:19:30.242Z,16.78
2016-06-20T18:19:40.246Z,16.78
2016-06-20T18:19:50.255Z,16.88
2016-06-20T18:20:00.260Z,16.78
2016-06-20T18:20:09.620Z,16.75
2016-06-20T18:20:19.622Z,16.81
2016-06-20T18:20:30.257Z,16.81
2016-06-20T18:20:40.270Z,16.75
2016-06-20T18:20:50.275Z,16.86
2016-06-20T18:21:00.283Z,16.78
2016-06-20T18:21:09.653Z,16.86
2016-06-20T18:21:20.285Z,16.83
2016-06-20T18:21:30.302Z,16.86
2016-06-20T18:21:40.303Z,16.86
2016-06-20T18:21:50.313Z,16.79
2016-06-20T18:21:59.686Z,16.79
2016-06-20T18:22:09.683Z,16.83
2016-06-20T18:22:19.681Z,16.79
2016-06-20T18:22:30.329Z,16.76
2016-06-20T18:22:40.330Z,16.89
2016-06-20T18:22:50.348Z,16.89
2016-06-20T18:23:00.352Z,16.83
2016-06-20T18:23:10.351Z,16.78
2016-06-20T18:23:20.351Z,16.76
2016-06-20T18:23:30.363Z,16.76
2016-06-20T18:23:40.371Z,16.73
2016-06-20T18:23:50.384Z,16.81
2016-06-20T18:24:00.379Z,16.79
2016-06-20T18:24:10.391Z,16.82
2016-06-20T18:24:20.406Z,16.81
2016-06-20T18:24:30.394Z,16.82
2016-06-20T18:24:40.418Z,16.85
2016-06-20T18:24:50.416Z,16.71
2016-06-20T18:25:00.415Z,16.75
2016-06-20T18:25:10.419Z,16.81
2016-06-20T18:25:19.787Z,16.76
2016-06-20T18:25:30.422Z,16.75
2016-06-20T18:25:40.431Z,16.78
2016-06-20T18:25:49.797Z,16.89
2016-06-20T18:26:00.453Z,16.82
2016-06-20T18:26:10.457Z,16.83
2016-06-20T18:26:20.454Z,16.75
2016-06-20T18:26:30.450Z,16.83
2016-06-20T18:26:40.462Z,16.82
2016-06-20T18:26:50.469Z,16.76
2016-06-20T18:27:00.476Z,16.82
2016-06-20T18:27:10.472Z,16.79
2016-06-20T18:27:19.852Z,16.75
2016-06-20T18:27:30.501Z,16.79
2016-06-20T18:27:39.890Z,16.79
2016-06-20T18:27:50.503Z,16.76
2016-06-20T18:27:59.864Z,16.85
2016-06-20T18:28:10.512Z,16.82
2016-06-20T18:28:19.886Z,16.73
2016-06-20T18:28:30.530Z,16.73
2016-06-20T18:28:40.541Z,16.75
2016-06-20T18:28:50.561Z,16.81
2016-06-20T18:29:00.541Z,16.68
2016-06-20T18:29:10.546Z,16.71
2016-06-20T18:29:20.568Z,16.76
2016-06-20T18:29:30.559Z,16.68
2016-06-20T18:29:40.568Z,16.66
2016-06-20T18:29:50.575Z,16.73
2016-06-20T18:30:00.585Z,16.66
2016-06-20T18:30:10.595Z,16.7
2016-06-20T18:30:19.955Z,16.66
2016-06-20T18:30:30.606Z,16.68
2016-06-20T18:30:40.605Z,16.64
2016-06-20T18:30:49.982Z,16.64
2016-06-20T18:31:00.622Z,16.61
2016-06-20T18:31:10.612Z,16.66
2016-06-20T18:31:20.613Z,16.7
2016-06-20T18:31:29.985Z,16.64
2016-06-20T18:31:40.634Z,16.67
2016-06-20T18:31:50.657Z,16.61
2016-06-20T18:32:00.639Z,16.63
2016-06-20T18:32:10.016Z,16.63
2016-06-20T18:32:20.660Z,16.63
2016-06-20T18:32:30.653Z,16.58
2016-06-20T18:32:40.667Z,16.63
2016-06-20T18:32:50.037Z,16.63
2016-06-20T18:33:00.042Z,16.67
2016-06-20T18:33:10.053Z,16.61
2016-06-20T18:33:20.704Z,16.63
2016-06-20T18:33:30.713Z,16.56
2016-06-20T18:33:40.701Z,16.57
2016-06-20T18:33:50.702Z,16.57
2016-06-20T18:34:00.720Z,16.58
2016-06-20T18:34:10.724Z,16.6
2016-06-20T18:34:20.706Z,16.58
2016-06-20T18:34:30.722Z,16.6
2016-06-20T18:34:40.735Z,16.58
2016-06-20T18:34:50.732Z,16.57
2016-06-20T18:35:00.118Z,16.52
2016-06-20T18:35:10.749Z,16.56
2016-06-20T18:35:20.751Z,16.61
2016-06-20T18:35:30.753Z,16.56
2016-06-20T18:35:40.760Z,16.61
2016-06-20T18:35:50.760Z,16.63
2016-06-20T18:36:00.775Z,16.58
2016-06-20T18:36:10.781Z,16.63
2016-06-20T18:36:20.152Z,16.57
2016-06-20T18:36:30.788Z,16.56
2016-06-20T18:36:40.148Z,16.57
2016-06-20T18:36:50.806Z,16.57
2016-06-20T18:37:00.827Z,16.61
2016-06-20T18:37:10.183Z,16.58
2016-06-20T18:37:20.819Z,16.53
2016-06-20T18:37:30.838Z,16.56
2016-06-20T18:37:40.841Z,16.56
2016-06-20T18:37:50.842Z,16.57
2016-06-20T18:38:00.843Z,16.6
2016-06-20T18:38:10.839Z,16.6
2016-06-20T18:38:20.851Z,16.6
2016-06-20T18:38:30.849Z,16.57
2016-06-20T18:38:40.859Z,16.63
2016-06-20T18:38:50.872Z,16.6
2016-06-20T18:39:00.867Z,16.6
2016-06-20T18:39:10.879Z,16.53
2016-06-20T18:39:20.238Z,16.56
2016-06-20T18:39:30.248Z,16.56
2016-06-20T18:39:40.884Z,16.57
2016-06-20T18:39:50.891Z,16.6
2016-06-20T18:40:00.905Z,16.56
2016-06-20T18:40:10.288Z,16.52
2016-06-20T18:40:20.914Z,16.57
2016-06-20T18:40:30.274Z,16.52
2016-06-20T18:40:40.923Z,16.53
2016-06-20T18:40:50.923Z,16.58
2016-06-20T18:41:00.297Z,16.5
2016-06-20T18:41:10.931Z,16.57
2016-06-20T18:41:20.936Z,16.6
2016-06-20T18:41:30.308Z,16.56
2016-06-20T18:41:40.963Z,16.58
2016-06-20T18:41:50.970Z,16.56
2016-06-20T18:42:00.341Z,16.53
2016-06-20T18:42:10.959Z,16.52
2016-06-20T18:42:20.971Z,16.52
2016-06-20T18:42:30.974Z,16.52
2016-06-20T18:42:40.985Z,16.57
2016-06-20T18:42:50.350Z,16.52
2016-06-20T18:43:01.003Z,16.53
2016-06-20T18:43:11.014Z,16.56
2016-06-20T18:43:20.829Z,16.52
2016-06-20T18:43:31.005Z,16.52
2016-06-20T18:43:40.382Z,16.52
2016-06-20T18:43:50.390Z,16.52
2016-06-20T18:44:01.036Z,16.53
2016-06-20T18:44:10.397Z,16.53
2016-06-20T18:44:21.038Z,16.53
2016-06-20T18:44:31.036Z,16.53
2016-06-20T18:44:41.048Z,16.57
2016-06-20T18:44:51.055Z,16.46
2016-06-20T18:45:01.069Z,16.49
2016-06-20T18:45:10.425Z,16.52
2016-06-20T18:45:21.081Z,16.49
2016-06-20T18:45:31.081Z,16.49
2016-06-20T18:45:41.124Z,16.43
2016-06-20T18:45:50.460Z,16.48
2016-06-20T18:46:01.103Z,16.48
2016-06-20T18:46:11.117Z,16.57
2016-06-20T18:46:21.107Z,16.5
2016-06-20T18:46:30.466Z,16.52
2016-06-20T18:46:41.115Z,16.46
2016-06-20T18:46:50.485Z,16.49
2016-06-20T18:47:01.133Z,16.49
2016-06-20T18:47:11.127Z,16.53
2016-06-20T18:47:21.128Z,16.52
2016-06-20T18:47:31.137Z,16.53
2016-06-20T18:47:40.511Z,16.48
2016-06-20T18:47:51.159Z,16.43
2016-06-20T18:48:01.161Z,16.48
2016-06-20T18:48:11.154Z,16.46
2016-06-20T18:48:20.530Z,16.45
2016-06-20T18:48:30.539Z,16.39
2016-06-20T18:48:41.179Z,16.45
2016-06-20T18:48:51.202Z,16.42
2016-06-20T18:49:01.191Z,16.41
2016-06-20T18:49:11.195Z,16.43
2016-06-20T18:49:20.556Z,16.39
2016-06-20T18:49:31.214Z,16.42
2016-06-20T18:49:41.206Z,16.41
2016-06-20T18:49:51.212Z,16.39
2016-06-20T18:50:01.221Z,16.38
2016-06-20T18:50:10.591Z,16.42
2016-06-20T18:50:21.229Z,16.42
2016-06-20T18:50:30.598Z,16.41
2016-06-20T18:50:40.598Z,16.43
2016-06-20T18:50:50.609Z,16.43
2016-06-20T18:51:01.262Z,16.41
2016-06-20T18:51:10.621Z,16.43
2016-06-20T18:51:21.267Z,16.42
2016-06-20T18:51:31.286Z,16.35
2016-06-20T18:51:41.279Z,16.42
2016-06-20T18:51:51.285Z,16.43
2016-06-20T18:52:01.301Z,16.41
2016-06-20T18:52:11.301Z,16.45
2016-06-20T18:52:21.311Z,16.42
2016-06-20T18:52:31.324Z,16.41
2016-06-20T18:52:41.305Z,16.43
2016-06-20T18:52:51.321Z,16.41
2016-06-20T18:53:01.320Z,16.46
2016-06-20T18:53:11.317Z,16.43
2016-06-20T18:53:21.327Z,16.46
2016-06-20T18:53:30.702Z,16.5
2016-06-20T18:53:41.333Z,16.45
2016-06-20T18:53:51.368Z,16.45
2016-06-20T18:54:09.822Z,16.35
2016-06-20T18:54:19.813Z,16.39
2016-06-20T18:54:29.799Z,16.41
2016-06-20T18:54:39.811Z,16.41
2016-06-20T18:54:49.825Z,16.41
2016-06-20T18:54:59.830Z,16.41
2016-06-20T18:55:09.839Z,16.34
2016-06-20T18:55:19.832Z,16.38
2016-06-20T18:55:29.839Z,16.41
2016-06-20T18:55:39.839Z,16.35
2016-06-20T18:55:49.215Z,16.39
2016-06-20T18:55:59.215Z,16.38
2016-06-20T18:56:09.223Z,16.34
2016-06-20T18:56:19.863Z,16.35
2016-06-20T18:56:29.863Z,16.41
2016-06-20T18:56:39.871Z,16.31
2016-06-20T18:56:49.870Z,16.43
2016-06-20T18:56:59.874Z,16.31
2016-06-20T18:57:09.895Z,16.28
2016-06-20T18:57:19.885Z,16.34
2016-06-20T18:57:29.260Z,16.28
2016-06-20T18:57:39.903Z,16.33
2016-06-20T18:57:49.915Z,16.25
2016-06-20T18:57:59.912Z,16.35
2016-06-20T18:58:09.910Z,16.35
2016-06-20T18:58:19.925Z,16.3
2016-06-20T18:58:29.289Z,16.23
2016-06-20T18:58:39.311Z,16.31
2016-06-20T18:58:49.947Z,16.31
2016-06-20T18:58:59.942Z,16.34
2016-06-20T18:59:09.951Z,16.27
2016-06-20T18:59:19.957Z,16.35
2016-06-20T18:59:29.320Z,16.28
2016-06-20T18:59:39.325Z,16.25
2016-06-20T18:59:49.966Z,16.24
2016-06-20T18:59:59.979Z,16.3
2016-06-20T19:00:09.981Z,16.28
2016-06-20T19:00:19.346Z,16.28
2016-06-20T19:00:29.348Z,16.33
2016-06-20T19:00:39.356Z,16.31
2016-06-20T19:00:49.352Z,16.21
2016-06-20T19:01:00.009Z,16.27
2016-06-20T19:01:09.365Z,16.31
2016-06-20T19:01:20.027Z,16.25
2016-06-20T19:01:30.039Z,16.33
2016-06-20T19:01:40.033Z,16.28
2016-06-20T19:01:50.032Z,16.31
2016-06-20T19:02:00.038Z,16.21
2016-06-20T19:02:09.405Z,16.21
2016-06-20T19:02:20.059Z,16.3
2016-06-20T19:02:29.421Z,16.25
2016-06-20T19:02:39.423Z,16.33
2016-06-20T19:02:49.439Z,16.31
2016-06-20T19:03:00.072Z,16.23
2016-06-20T19:03:10.070Z,16.24
2016-06-20T19:03:20.090Z,16.27
2016-06-20T19:03:30.085Z,16.24
2016-06-20T19:03:40.093Z,16.21
2016-06-20T19:03:50.105Z,16.3
2016-06-20T19:04:00.121Z,16.23
2016-06-20T19:04:10.108Z,16.25
2016-06-20T19:04:20.133Z,16.27
2016-06-20T19:04:30.117Z,16.28
2016-06-20T19:04:39.501Z,16.31
2016-06-20T19:04:50.138Z,16.28
2016-06-20T19:05:00.131Z,16.33
2016-06-20T19:05:09.491Z,16.31
2016-06-20T19:05:20.144Z,16.33
2016-06-20T19:05:29.512Z,16.17
2016-06-20T19:05:40.155Z,16.25
2016-06-20T19:05:50.162Z,16.25
2016-06-20T19:06:00.168Z,16.24
2016-06-20T19:06:10.170Z,16.24
2016-06-20T19:06:20.393Z,16.21
2016-06-20T19:06:30.177Z,16.27
2016-06-20T19:06:40.180Z,16.2
2016-06-20T19:06:49.555Z,16.27
2016-06-20T19:07:00.205Z,16.3
2016-06-20T19:07:10.199Z,16.27
2016-06-20T19:07:20.207Z,16.27
2016-06-20T19:07:30.206Z,16.25
2016-06-20T19:07:40.217Z,16.24
2016-06-20T19:07:50.241Z,16.12
2016-06-20T19:08:00.228Z,16.24
2016-06-20T19:08:10.256Z,16.25
2016-06-20T19:08:20.255Z,16.21
2016-06-20T19:08:29.610Z,16.23
2016-06-20T19:08:40.242Z,16.27
2016-06-20T19:08:50.254Z,16.24
2016-06-20T19:09:00.268Z,16.27
2016-06-20T19:09:09.641Z,16.11
2016-06-20T19:09:20.276Z,16.28
2016-06-20T19:09:30.303Z,16.2
2016-06-20T19:09:40.278Z,16.24
2016-06-20T19:09:50.299Z,16.12
2016-06-20T19:10:00.289Z,16.15
2016-06-20T19:10:10.293Z,16.12
2016-06-20T19:10:20.307Z,16.23
2016-06-20T19:10:30.319Z,16.09
2016-06-20T19:10:39.683Z,16.09
2016-06-20T19:10:50.352Z,16.14
2016-06-20T19:10:59.686Z,16.15
2016-06-20T19:11:10.332Z,16.25
2016-06-20T19:11:19.689Z,16.15
2016-06-20T19:11:30.354Z,16.27
2016-06-20T19:11:40.346Z,16.25